Time;durP1;ratioP1;P1;durP2;ratioP2;P2;SDS_P1;SDS_P2;PMS_P1;PMS_P2;Temp;Humidity;BMP_temperature;BMP_pressure;BME280_temperature;BME280_humidity;BME280_pressure;Samples;Min_cycle;Max_cycle;Signal;HPM_P1;HPM_P2
2023/06/17 00:01:59;;;;;;;;;17.67;17.67;;;;;25.08;55.13;101211.53;5099436;27;45541;-73
2023/06/17 00:04:24;;;;;;;;;19.00;17.00;;;;;25.03;55.67;101209.00;5099387;27;45561;-72
2023/06/17 00:06:50;;;;;;;;;17.00;17.00;;;;;24.97;55.93;101198.47;5098287;27;52825;-72
2023/06/17 00:09:15;;;;;;;;;15.33;15.33;;;;;24.94;56.37;101200.44;5099893;27;45351;-73
2023/06/17 00:11:40;;;;;;;;;19.33;18.00;;;;;24.90;56.82;101205.09;5099027;27;45429;-73
2023/06/17 00:14:07;;;;;;;;;18.00;17.00;;;;;24.89;56.69;101199.75;5096452;27;46327;-73
2023/06/17 00:16:36;;;;;;;;;19.67;17.33;;;;;24.88;56.69;101198.88;5098726;27;45415;-73
2023/06/17 00:19:02;;;;;;;;;19.67;18.00;;;;;24.88;57.50;101198.88;5099128;27;45279;-73
2023/06/17 00:21:28;;;;;;;;;18.67;16.00;;;;;24.88;57.71;101190.78;5098848;27;45308;-73
2023/06/17 00:23:53;;;;;;;;;18.00;15.00;;;;;24.88;57.42;101193.47;5097976;27;68687;-73
2023/06/17 00:26:18;;;;;;;;;17.33;16.67;;;;;24.88;57.38;101196.19;5092002;27;66401;-75
2023/06/17 00:28:44;;;;;;;;;18.00;16.33;;;;;24.84;57.75;101197.25;5087256;27;52328;-73
2023/06/17 00:31:09;;;;;;;;;18.33;17.00;;;;;24.81;57.91;101198.25;5099196;27;45391;-73
2023/06/17 00:33:34;;;;;;;;;14.67;14.67;;;;;24.78;58.90;101195.69;5098731;27;46506;-73
2023/06/17 00:36:02;;;;;;;;;17.67;14.33;;;;;24.76;58.19;101191.28;5098605;27;45449;-74
2023/06/17 00:38:27;;;;;;;;;18.00;17.67;;;;;24.72;58.89;101184.28;5099319;27;45541;-73
2023/06/17 00:40:53;;;;;;;;;16.67;16.33;;;;;24.67;59.00;101179.06;5097980;27;62584;-72
2023/06/17 00:43:18;;;;;;;;;20.00;17.33;;;;;24.63;59.39;101176.53;5098368;27;64893;-72
2023/06/17 00:45:43;;;;;;;;;14.67;14.33;;;;;24.60;59.74;101180.22;5097713;27;64480;-73
2023/06/17 00:48:11;;;;;;;;;15.00;15.00;;;;;24.56;59.45;101173.22;5099248;27;45187;-72
2023/06/17 00:50:36;;;;;;;;;15.33;15.00;;;;;24.55;59.05;101164.25;5098625;27;45398;-73
2023/06/17 00:53:03;;;;;;;;;17.00;15.00;;;;;24.55;59.12;101164.25;5097675;27;72520;-72
2023/06/17 00:55:28;;;;;;;;;14.67;13.67;;;;;24.56;59.54;101157.03;5080232;27;45409;-73
2023/06/17 00:57:57;;;;;;;;;12.67;12.67;;;;;24.60;59.21;101160.47;5098940;27;45492;-73
2023/06/17 01:00:23;;;;;;;;;18.00;15.00;;;;;24.61;59.14;101152.31;5080482;27;45484;-74
2023/06/17 01:02:48;;;;;;;;;13.00;13.00;;;;;24.64;59.40;101148.59;5098130;27;47247;-74
2023/06/17 01:05:16;;;;;;;;;16.67;15.33;;;;;24.64;58.91;101146.78;5097772;27;45358;-72
2023/06/17 01:08:05;;;;;;;;;12.33;12.33;;;;;24.63;59.27;101145.03;5098638;27;45276;-73
2023/06/17 01:10:51;;;;;;;;;13.33;13.33;;;;;24.63;59.68;101145.03;5080014;27;45350;-73
2023/06/17 01:13:17;;;;;;;;;14.33;14.33;;;;;24.62;59.80;101142.41;5077863;27;46255;-73
2023/06/17 01:15:43;;;;;;;;;15.33;14.33;;;;;24.60;60.12;101141.56;5098301;27;45288;-73
2023/06/17 01:18:09;;;;;;;;;19.67;14.67;;;;;24.58;59.80;101146.16;5097825;27;45150;-72
2023/06/17 01:20:35;;;;;;;;;17.00;16.00;;;;;24.54;59.83;101143.56;5098632;27;45627;-73
2023/06/17 01:23:01;;;;;;;;;15.00;13.67;;;;;24.54;60.09;101137.31;5093049;27;46486;-73
2023/06/17 01:25:30;;;;;;;;;13.67;13.67;;;;;24.52;60.42;101142.78;5095697;27;45415;-73
2023/06/17 01:27:59;;;;;;;;;16.33;16.33;;;;;24.50;60.83;101141.06;5080619;27;45418;-73
2023/06/17 01:30:28;;;;;;;;;17.00;17.00;;;;;24.50;60.97;101143.75;5097855;27;45562;-73
2023/06/17 01:32:54;;;;;;;;;15.00;14.00;;;;;24.49;61.01;101137.50;5097840;27;46625;-73
2023/06/17 01:35:20;;;;;;;;;18.33;15.33;;;;;24.48;61.50;101130.34;5097901;27;45501;-73
2023/06/17 01:37:48;;;;;;;;;15.00;13.00;;;;;24.46;62.11;101134.06;5098092;27;45393;-73
2023/06/17 01:40:15;;;;;;;;;14.00;14.00;;;;;24.43;62.43;101132.34;5080279;27;45473;-73
2023/06/17 01:42:45;;;;;;;;;15.33;15.33;;;;;24.39;62.88;101125.31;5079397;27;46585;-73
2023/06/17 01:45:11;;;;;;;;;14.00;14.00;;;;;24.39;62.95;101135.22;5098008;27;45407;-74
2023/06/17 01:47:37;;;;;;;;;13.33;13.33;;;;;24.37;63.08;101127.22;5096936;27;45497;-73
2023/06/17 01:50:04;;;;;;;;;14.33;14.33;;;;;24.36;62.88;101124.59;5096933;27;61955;-73
2023/06/17 01:52:29;;;;;;;;;16.00;14.67;;;;;24.34;62.78;101121.91;5097311;27;47935;-73
2023/06/17 01:54:55;;;;;;;;;13.33;12.00;;;;;24.34;62.64;101126.41;5097307;27;45470;-73
2023/06/17 01:57:21;;;;;;;;;16.00;14.67;;;;;24.32;62.84;101123.78;5097565;27;45347;-73
2023/06/17 01:59:46;;;;;;;;;14.67;14.67;;;;;24.31;62.86;101122.91;5097717;27;45651;-73
2023/06/17 02:02:11;;;;;;;;;17.33;14.33;;;;;24.29;62.86;101122.13;5087075;27;64708;-73
2023/06/17 02:04:37;;;;;;;;;14.00;13.00;;;;;24.28;62.81;101119.44;5085355;27;67441;-73
2023/06/17 02:07:02;;;;;;;;;15.00;15.00;;;;;24.29;63.29;101124.81;5094909;27;64385;-73
2023/06/17 02:09:28;;;;;;;;;15.67;15.33;;;;;24.30;63.35;101125.69;5097393;27;45547;-73
2023/06/17 02:11:53;;;;;;;;;16.00;16.00;;;;;24.29;63.67;101118.53;5088880;27;70929;-73
2023/06/17 02:14:18;;;;;;;;;17.33;14.00;;;;;24.29;63.71;101121.25;5086616;27;70476;-75
2023/06/17 02:16:46;;;;;;;;;13.33;13.33;;;;;24.29;63.64;101115.84;5078955;27;45565;-76
2023/06/17 02:19:12;;;;;;;;;17.00;14.67;;;;;24.30;63.50;101120.28;5086699;27;45512;-76
2023/06/17 02:21:38;;;;;;;;;15.00;13.00;;;;;24.32;63.25;101126.50;5097312;27;46452;-75
2023/06/17 02:24:04;;;;;;;;;15.33;15.33;;;;;24.33;64.14;101119.25;5094686;27;45195;-75
2023/06/17 02:26:29;;;;;;;;;16.67;15.67;;;;;24.33;64.16;101122.84;5094562;27;45487;-75
2023/06/17 02:28:56;;;;;;;;;15.33;14.00;;;;;24.33;63.99;101114.75;5091605;27;61430;-74
2023/06/17 02:31:22;;;;;;;;;13.33;12.33;;;;;24.32;64.19;101115.69;5086606;27;47328;-74
2023/06/17 02:33:47;;;;;;;;;16.67;14.33;;;;;24.30;64.72;101109.50;5095364;27;45342;-75
2023/06/17 02:36:14;;;;;;;;;16.00;14.00;;;;;24.27;64.26;101110.47;5085057;27;45495;-74
2023/06/17 02:38:40;;;;;;;;;14.00;14.00;;;;;24.27;64.75;101110.47;5093903;27;45433;-76
2023/06/17 02:41:05;;;;;;;;;12.67;12.67;;;;;24.26;65.40;101099.75;5090198;27;46502;-75
2023/06/17 02:43:31;;;;;;;;;16.00;16.00;;;;;24.26;65.24;101087.16;5087136;27;45272;-75
2023/06/17 02:45:57;;;;;;;;;15.67;15.67;;;;;24.29;65.57;101086.16;5091493;27;64767;-75
2023/06/17 02:48:22;;;;;;;;;13.00;13.00;;;;;24.29;64.63;101076.22;5074120;27;45362;-74
2023/06/17 02:50:48;;;;;;;;;16.00;16.00;;;;;24.33;64.92;101078.78;5088446;27;46459;-74
2023/06/17 02:53:15;;;;;;;;;15.67;15.00;;;;;24.35;64.81;101083.22;5078989;27;66742;-76
2023/06/17 02:55:45;;;;;;;;;14.00;14.00;;;;;24.38;64.55;101088.47;5080944;27;45197;-75
2023/06/17 02:58:14;;;;;;;;;17.00;15.00;;;;;24.40;64.36;101083.03;5077858;27;45422;-75
2023/06/17 03:00:40;;;;;;;;;15.67;14.00;;;;;24.41;64.86;101082.97;5084347;27;46518;-76
2023/06/17 03:03:06;;;;;;;;;15.00;15.00;;;;;24.41;64.70;101077.56;5096917;27;45228;-74
2023/06/17 03:05:32;;;;;;;;;13.00;13.00;;;;;24.40;64.62;101073.13;5088073;27;45467;-75
2023/06/17 03:07:57;;;;;;;;;11.67;11.33;;;;;24.40;65.12;101080.34;5096789;27;45430;-74
2023/06/17 03:10:22;;;;;;;;;16.00;14.00;;;;;24.42;64.95;101078.44;5085037;27;69018;-75
2023/06/17 03:12:48;;;;;;;;;14.67;12.33;;;;;24.45;64.92;101073.78;5096238;27;45391;-75
2023/06/17 03:15:13;;;;;;;;;14.00;14.00;;;;;24.45;64.50;101070.19;5093252;27;61586;-75
2023/06/17 03:17:39;;;;;;;;;14.33;14.33;;;;;24.47;64.95;101066.50;5096943;27;45393;-75
2023/06/17 03:20:08;;;;;;;;;13.00;13.00;;;;;24.48;64.75;101070.06;5090986;27;47275;-75
2023/06/17 03:22:33;;;;;;;;;14.33;14.33;;;;;24.49;64.72;101067.28;5094161;27;45470;-75
2023/06/17 03:24:58;;;;;;;;;12.00;12.00;;;;;24.50;64.65;101070.88;5096651;27;63693;-75
2023/06/17 03:27:24;;;;;;;;;14.00;14.00;;;;;24.49;64.99;101072.69;5099406;27;52323;-75
2023/06/17 03:29:49;;;;;;;;;18.00;15.00;;;;;24.49;65.07;101070.00;5099755;27;45647;-75
2023/06/17 03:32:15;;;;;;;;;14.67;13.00;;;;;24.48;65.09;101065.53;5099888;27;45376;-74
2023/06/17 03:34:40;;;;;;;;;15.00;12.33;;;;;24.49;65.26;101074.53;5099713;27;45694;-75
2023/06/17 03:37:06;;;;;;;;;13.33;13.00;;;;;24.48;65.05;101073.66;5100168;27;45263;-75
2023/06/17 03:39:31;;;;;;;;;16.67;13.00;;;;;24.49;65.60;101066.41;5096973;27;67584;-75
2023/06/17 03:41:56;;;;;;;;;16.00;15.00;;;;;24.49;65.96;101064.59;5098682;27;49348;-75
2023/06/17 03:44:22;;;;;;;;;15.00;14.00;;;;;24.49;65.57;101063.72;5099894;27;45275;-75
2023/06/17 03:46:47;;;;;;;;;14.00;14.00;;;;;24.49;65.65;101067.28;5099412;27;56218;-75
2023/06/17 03:49:12;;;;;;;;;14.67;13.00;;;;;24.51;66.13;101069.94;5098496;27;68929;-72
2023/06/17 03:51:38;;;;;;;;;19.00;15.33;;;;;24.51;66.05;101068.13;5097222;27;70372;-74
2023/06/17 03:54:03;;;;;;;;;12.67;12.00;;;;;24.52;66.74;101075.28;5097457;27;50367;-74
2023/06/17 03:56:29;;;;;;;;;14.00;13.00;;;;;24.52;66.91;101067.19;5099437;27;45343;-75
2023/06/17 03:58:54;;;;;;;;;16.00;15.00;;;;;24.52;66.84;101074.41;5099735;27;46373;-75
2023/06/17 04:01:19;;;;;;;;;14.00;14.00;;;;;24.50;66.73;101077.19;5098431;27;67849;-74
2023/06/17 04:03:45;;;;;;;;;15.00;14.00;;;;;24.47;66.00;101069.19;5099753;27;45224;-75
2023/06/17 04:06:10;;;;;;;;;13.00;13.00;;;;;24.45;65.90;101071.09;5099101;27;45370;-74
2023/06/17 04:08:38;;;;;;;;;14.00;14.00;;;;;24.43;65.56;101072.97;5098500;27;68592;-74
2023/06/17 04:11:04;;;;;;;;;17.00;15.33;;;;;24.44;65.13;101081.94;5098669;27;45503;-74
2023/06/17 04:13:29;;;;;;;;;13.67;13.00;;;;;24.47;65.21;101065.63;5098841;27;57605;-74
2023/06/17 04:15:56;;;;;;;;;16.00;14.00;;;;;24.49;65.36;101077.22;5099563;27;45309;-74
2023/06/17 04:18:22;;;;;;;;;13.67;13.67;;;;;24.50;65.63;101068.16;5098820;27;46612;-74
2023/06/17 04:20:47;;;;;;;;;13.33;11.67;;;;;24.49;65.63;101067.28;5099677;27;45506;-74
2023/06/17 04:23:12;;;;;;;;;15.00;14.00;;;;;24.50;65.26;101077.19;5099141;27;45229;-75
2023/06/17 04:25:38;;;;;;;;;13.00;13.00;;;;;24.49;65.05;101072.69;5098895;27;52811;-75
2023/06/17 04:28:06;;;;;;;;;14.33;12.00;;;;;24.50;65.29;101069.06;5098272;27;70193;-74
2023/06/17 04:30:32;;;;;;;;;13.00;12.33;;;;;24.51;66.04;101068.13;5098914;27;45572;-74
2023/06/17 04:33:00;;;;;;;;;11.67;11.67;;;;;24.51;65.97;101076.22;5098713;27;45530;-74
2023/06/17 04:35:26;;;;;;;;;12.00;12.00;;;;;24.51;66.00;101070.81;5098809;27;45986;-74
2023/06/17 04:37:55;;;;;;;;;12.00;12.00;;;;;24.52;66.56;101074.41;5098603;27;47100;-74
2023/06/17 04:40:21;;;;;;;;;12.00;12.00;;;;;24.53;67.25;101077.03;5091011;27;45537;-74
2023/06/17 04:42:50;;;;;;;;;15.33;14.00;;;;;24.55;66.66;101066.16;5091210;27;45385;-74
2023/06/17 04:45:17;;;;;;;;;13.00;11.67;;;;;24.56;66.07;101076.91;5098345;27;45465;-74
2023/06/17 04:47:43;;;;;;;;;13.00;11.00;;;;;24.57;66.71;101069.69;5098568;27;47494;-74
2023/06/17 04:50:09;;;;;;;;;15.33;14.33;;;;;24.58;66.85;101067.84;5098559;27;45378;-75
2023/06/17 04:52:34;;;;;;;;;10.67;10.00;;;;;24.59;67.36;101065.09;5098208;27;45255;-74
2023/06/17 04:55:00;;;;;;;;;13.00;12.00;;;;;24.60;67.29;101057.84;5097914;27;63520;-74
2023/06/17 04:57:25;;;;;;;;;13.67;13.67;;;;;24.61;68.00;101060.50;5098164;27;45724;-76
2023/06/17 04:59:51;;;;;;;;;14.00;14.00;;;;;24.62;68.43;101059.56;5097859;27;45276;-74
2023/06/17 05:02:16;;;;;;;;;11.67;11.67;;;;;24.63;69.36;101060.44;5098218;27;61678;-74
2023/06/17 05:04:41;;;;;;;;;12.00;12.00;;;;;24.62;69.33;101054.16;5089321;27;61701;-74
2023/06/17 05:07:07;;;;;;;;;12.00;12.00;;;;;24.62;69.63;101058.69;5097803;27;62362;-74
2023/06/17 05:09:32;;;;;;;;;11.67;11.00;;;;;24.63;69.74;101061.31;5097422;27;68629;-74
2023/06/17 05:11:58;;;;;;;;;12.33;12.00;;;;;24.65;69.00;101058.53;5097989;27;45395;-75
2023/06/17 05:14:23;;;;;;;;;12.67;12.33;;;;;24.68;70.08;101055.72;5080299;27;45141;-76
2023/06/17 05:16:48;;;;;;;;;10.67;10.67;;;;;24.69;69.01;101063.75;5097014;27;66305;-74
2023/06/17 05:19:14;;;;;;;;;9.00;9.00;;;;;24.71;69.12;101055.56;5094065;27;45376;-74
2023/06/17 05:21:39;;;;;;;;;12.00;12.00;;;;;24.73;68.85;101057.25;5097228;27;59584;-74
2023/06/17 05:24:05;;;;;;;;;12.33;11.00;;;;;24.77;69.34;101055.31;5098582;27;46436;-74
2023/06/17 05:26:30;;;;;;;;;13.00;12.00;;;;;24.81;69.25;101062.31;5097228;27;65943;-74
2023/06/17 05:28:57;;;;;;;;;12.00;11.33;;;;;24.84;68.90;101062.19;5097021;27;56316;-74
2023/06/17 05:31:22;;;;;;;;;12.67;10.00;;;;;24.87;68.50;101053.94;5098315;27;45138;-74
2023/06/17 05:33:47;;;;;;;;;11.00;10.00;;;;;24.90;68.46;101052.94;5096689;27;45229;-75
2023/06/17 05:36:13;;;;;;;;;12.67;12.67;;;;;24.92;68.63;101051.03;5096984;27;69058;-74
2023/06/17 05:38:39;;;;;;;;;12.67;12.67;;;;;24.94;69.29;101054.56;5097664;27;45608;-75
2023/06/17 05:41:05;;;;;;;;;12.67;11.33;;;;;24.97;68.81;101051.69;5093488;27;45365;-74
2023/06/17 05:43:30;;;;;;;;;13.00;12.00;;;;;24.98;68.90;101056.16;5098255;27;45274;-75
2023/06/17 05:45:56;;;;;;;;;12.67;12.67;;;;;25.01;68.85;101058.72;5097847;27;45597;-75
2023/06/17 05:48:21;;;;;;;;;16.67;13.67;;;;;25.04;68.32;101058.59;5096214;27;45336;-74
2023/06/17 05:50:46;;;;;;;;;13.00;13.00;;;;;25.06;68.58;101056.72;5098040;27;45356;-76
2023/06/17 05:53:12;;;;;;;;;13.67;12.00;;;;;25.08;68.33;101066.50;5096811;27;60444;-74
2023/06/17 05:55:37;;;;;;;;;12.00;11.00;;;;;25.10;67.74;101050.25;5096860;27;64969;-74
2023/06/17 05:58:03;;;;;;;;;12.00;12.00;;;;;25.13;68.42;101063.59;5096242;27;67974;-74
2023/06/17 06:00:28;;;;;;;;;14.00;11.33;;;;;25.15;67.56;101059.00;5084770;27;64418;-74
2023/06/17 06:02:53;;;;;;;;;12.33;11.00;;;;;25.21;67.76;101061.44;5096335;27;45177;-75
2023/06/17 06:05:19;;;;;;;;;14.33;13.33;;;;;25.28;68.19;101056.59;5097674;27;46295;-74
2023/06/17 06:07:44;;;;;;;;;12.67;12.67;;;;;25.37;68.69;101056.19;5097339;27;45219;-75
2023/06/17 06:10:10;;;;;;;;;11.33;11.33;;;;;25.47;67.03;101067.44;5096834;27;61774;-74
2023/06/17 06:12:36;;;;;;;;;12.67;11.00;;;;;25.54;68.07;101053.56;5097379;27;45513;-75
2023/06/17 06:15:02;;;;;;;;;13.00;13.00;;;;;25.63;68.66;101068.47;5097296;27;47056;-75
2023/06/17 06:19:55;;;;;;;;;13.00;13.00;;;;;25.78;67.95;101080.41;5186099;22;67961;-74
2023/06/17 06:22:20;;;;;;;;;9.00;9.00;;;;;25.84;66.36;101075.59;5064579;28;45460;-74
2023/06/17 06:24:45;;;;;;;;;11.00;11.00;;;;;25.90;65.81;101077.13;5076309;28;47330;-74
2023/06/17 06:27:11;;;;;;;;;12.67;12.67;;;;;25.94;66.25;101070.59;5075312;28;65687;-74
2023/06/17 06:29:37;;;;;;;;;12.00;12.00;;;;;26.01;65.79;101073.88;5076873;28;45316;-74
2023/06/17 06:32:02;;;;;;;;;15.00;12.33;;;;;26.04;64.08;101073.72;5075336;28;62840;-74
2023/06/17 06:34:28;;;;;;;;;11.00;11.00;;;;;26.05;63.19;101070.94;5075742;28;45998;-74
2023/06/17 06:36:56;;;;;;;;;13.33;11.67;;;;;26.11;62.76;101073.34;5073116;28;45319;-74
2023/06/17 06:39:21;;;;;;;;;13.00;11.00;;;;;26.18;62.48;101081.16;5076551;28;45319;-75
2023/06/17 06:41:47;;;;;;;;;11.67;11.33;;;;;26.24;63.71;101072.72;5076263;28;45575;-74
2023/06/17 06:44:12;;;;;;;;;11.00;10.00;;;;;26.31;63.14;101079.56;5075789;28;68832;-75
2023/06/17 06:46:37;;;;;;;;;11.33;11.33;;;;;26.34;61.77;101087.56;5069140;27;45493;-76
2023/06/17 06:49:02;;;;;;;;;10.67;10.67;;;;;26.38;61.44;101083.75;5076502;28;45482;-75
2023/06/17 06:51:28;;;;;;;;;13.33;10.33;;;;;26.43;61.10;101088.97;5072009;28;61582;-75
2023/06/17 06:53:53;;;;;;;;;10.33;9.67;;;;;26.51;62.88;101090.31;5072086;28;54697;-75
2023/06/17 06:56:19;;;;;;;;;12.00;12.00;;;;;26.59;61.31;101090.81;5071956;28;45456;-77
2023/06/17 06:58:44;;;;;;;;;11.67;11.67;;;;;26.71;61.93;101091.13;5064040;28;45447;-75
2023/06/17 07:01:09;;;;;;;;;10.67;9.33;;;;;26.80;62.23;101088.81;5074139;28;48801;-76
2023/06/17 07:03:35;;;;;;;;;10.00;9.00;;;;;26.89;62.52;101091.00;5063332;28;57863;-75
2023/06/17 07:06:00;;;;;;;;;10.67;10.00;;;;;26.98;62.59;101095.06;5074417;27;45411;-76
2023/06/17 07:08:25;;;;;;;;;10.00;10.00;;;;;27.05;62.14;101092.91;5077452;28;47128;-75
2023/06/17 07:10:51;;;;;;;;;13.00;11.67;;;;;27.09;62.08;101095.41;5075878;28;47507;-75
2023/06/17 07:13:17;;;;;;;;;11.00;11.00;;;;;27.14;61.60;101096.03;5077978;28;46594;-76
2023/06/17 07:15:44;;;;;;;;;12.67;11.00;;;;;27.18;60.94;101085.03;5078126;28;45376;-78
2023/06/17 07:18:10;;;;;;;;;12.00;10.00;;;;;27.22;61.14;101084.81;5077748;27;46573;-80
2023/06/17 07:20:35;;;;;;;;;12.00;10.33;;;;;27.27;58.99;101085.44;5078245;27;45582;-76
2023/06/17 07:23:00;;;;;;;;;15.33;10.67;;;;;27.33;61.23;101089.63;5075931;28;59029;-78
2023/06/17 07:25:26;;;;;;;;;12.00;11.00;;;;;27.37;60.70;101091.19;5075092;28;45457;-78
2023/06/17 07:27:51;;;;;;;;;11.00;11.00;;;;;27.40;60.84;101088.31;5074126;28;46646;-77
2023/06/17 07:30:17;;;;;;;;;10.33;10.33;;;;;27.44;60.81;101095.34;5074209;28;45474;-78
2023/06/17 07:32:42;;;;;;;;;9.33;8.33;;;;;27.49;59.57;101095.09;5076046;28;61198;-77
2023/06/17 07:35:08;;;;;;;;;9.00;9.00;;;;;27.50;59.03;101094.13;5078854;27;45538;-76
2023/06/17 07:37:33;;;;;;;;;11.67;11.33;;;;;27.53;59.23;101100.22;5074005;28;45547;-76
2023/06/17 07:39:58;;;;;;;;;10.00;10.00;;;;;27.59;59.89;101101.72;5075085;27;61982;-75
2023/06/17 07:42:24;;;;;;;;;13.00;13.00;;;;;27.62;59.57;101104.28;5074715;28;45850;-73
2023/06/17 07:44:49;;;;;;;;;10.00;10.00;;;;;27.62;59.27;101097.03;5077046;28;45532;-79
2023/06/17 07:47:15;;;;;;;;;11.00;11.00;;;;;27.64;60.80;101105.06;5078865;27;61000;-78
2023/06/17 07:49:40;;;;;;;;;11.33;10.00;;;;;27.61;60.02;101107.97;5078677;28;45501;-78
2023/06/17 07:52:06;;;;;;;;;12.33;10.67;;;;;27.61;59.20;101105.25;5075842;28;46275;-79
2023/06/17 07:54:35;;;;;;;;;13.67;12.33;;;;;27.64;59.21;101100.50;5071581;28;45398;-79
2023/06/17 07:57:02;;;;;;;;;10.67;9.33;;;;;27.71;59.81;101102.94;5065590;28;45472;-78
2023/06/17 07:59:27;;;;;;;;;11.67;11.67;;;;;27.76;59.40;101099.00;5076674;28;45525;-78
2023/06/17 08:01:53;;;;;;;;;9.00;9.00;;;;;27.81;60.00;101099.63;5077419;28;45684;-78
2023/06/17 08:04:19;;;;;;;;;13.67;12.00;;;;;27.84;60.45;101095.84;5075958;28;45505;-78
2023/06/17 08:06:45;;;;;;;;;11.00;9.33;;;;;27.86;61.11;101086.66;5060398;28;45769;-78
2023/06/17 08:09:12;;;;;;;;;10.67;10.67;;;;;27.88;60.95;101092.00;5078492;28;45414;-78
2023/06/17 08:11:37;;;;;;;;;9.33;9.33;;;;;27.93;61.08;101092.59;5077544;28;46291;-79
2023/06/17 08:14:03;;;;;;;;;12.00;12.00;;;;;28.03;60.96;101084.81;5078139;28;45771;-77
2023/06/17 08:16:28;;;;;;;;;13.33;12.00;;;;;28.09;61.19;101079.91;5074813;28;45327;-79
2023/06/17 08:18:53;;;;;;;;;12.00;11.00;;;;;28.14;62.25;101079.63;5054842;27;62009;-78
2023/06/17 08:21:19;;;;;;;;;10.00;10.00;;;;;28.14;60.27;101080.50;5072809;27;45677;-78
2023/06/17 08:23:44;;;;;;;;;9.33;9.33;;;;;28.12;58.83;101084.25;5077988;28;47078;-77
2023/06/17 08:26:11;;;;;;;;;9.67;9.67;;;;;28.11;58.37;101074.38;5042619;28;45425;-78
2023/06/17 08:28:36;;;;;;;;;12.00;10.00;;;;;28.12;59.18;101067.97;5077363;28;45495;-79
2023/06/17 08:31:02;;;;;;;;;13.00;10.33;;;;;28.18;58.27;101065.78;5072015;27;59101;-78
2023/06/17 08:33:29;;;;;;;;;10.00;10.00;;;;;28.32;60.42;101070.38;5067182;28;65732;-76
2023/06/17 08:35:54;;;;;;;;;10.33;9.33;;;;;28.51;58.81;101069.34;5078619;27;45533;-79
2023/06/17 08:38:19;;;;;;;;;12.00;11.00;;;;;28.66;58.08;101072.00;5078386;28;45525;-78
2023/06/17 08:40:47;;;;;;;;;14.00;12.67;;;;;28.79;56.97;101057.66;5075688;27;60663;-79
2023/06/17 08:43:17;;;;;;;;;9.67;9.00;;;;;28.90;57.87;101058.75;5077926;28;45432;-82
2023/06/17 08:45:45;;;;;;;;;9.00;9.00;;;;;29.00;56.52;101058.22;5059134;28;45468;-77
2023/06/17 08:48:11;;;;;;;;;10.00;10.00;;;;;29.04;57.00;101043.47;5058226;28;45591;-78
2023/06/17 08:50:37;;;;;;;;;10.67;10.67;;;;;29.09;55.39;101050.34;5059013;27;46486;-77
2023/06/17 08:53:02;;;;;;;;;10.33;10.33;;;;;29.14;55.42;101053.66;5058806;28;64755;-77
2023/06/17 08:55:28;;;;;;;;;11.00;11.00;;;;;29.22;56.68;101045.88;5075512;27;45600;-79
2023/06/17 08:57:54;;;;;;;;;13.00;12.00;;;;;29.29;58.10;101049.06;5054168;28;64759;-79
2023/06/17 09:00:19;;;;;;;;;14.00;13.00;;;;;29.33;55.09;101047.91;5058442;27;46651;-78
2023/06/17 09:02:45;;;;;;;;;16.67;12.67;;;;;29.38;54.81;101047.63;5074885;28;45700;-80
2023/06/17 09:05:11;;;;;;;;;13.00;10.67;;;;;29.42;54.79;101052.78;5074838;28;45307;-79
2023/06/17 09:07:37;;;;;;;;;11.67;11.67;;;;;29.50;55.48;101044.09;5075885;28;45454;-75
2023/06/17 09:10:07;;;;;;;;;10.00;10.00;;;;;29.59;56.02;101048.97;5076364;28;45415;-78
2023/06/17 09:12:39;;;;;;;;;12.00;12.00;;;;;29.69;55.35;101047.41;5058888;28;45324;-76
2023/06/17 09:15:10;;;;;;;;;12.00;12.00;;;;;29.75;56.07;101049.72;5075559;28;45386;-76
2023/06/17 09:17:37;;;;;;;;;14.00;12.00;;;;;29.77;56.77;101049.63;5058973;28;45582;-77
2023/06/17 09:20:16;;;;;;;;;9.33;8.00;;;;;29.70;56.35;101054.59;5074187;27;47304;-78
2023/06/17 09:22:43;;;;;;;;;11.67;10.67;;;;;29.62;56.45;101048.81;5069014;28;45387;-76
2023/06/17 09:25:13;;;;;;;;;12.00;12.00;;;;;29.55;56.54;101052.00;5075523;27;45387;-76
2023/06/17 09:27:50;;;;;;;;;10.67;10.00;;;;;29.49;57.60;101055.97;5071813;28;46741;-77
2023/06/17 09:30:16;;;;;;;;;10.67;10.67;;;;;29.48;58.93;101055.09;5065205;28;46498;-77
2023/06/17 09:32:42;;;;;;;;;10.67;10.67;;;;;29.49;60.66;101047.78;5057963;28;45465;-78
2023/06/17 09:35:17;;;;;;;;;11.67;10.00;;;;;29.50;59.57;101052.25;5068380;28;45392;-77
2023/06/17 09:37:53;;;;;;;;;13.33;13.00;;;;;29.54;57.90;101047.53;5071398;27;45712;-77
2023/06/17 09:40:19;;;;;;;;;14.67;14.00;;;;;29.57;57.32;101050.06;5073121;28;46435;-78
2023/06/17 09:42:46;;;;;;;;;19.00;15.00;;;;;29.58;56.53;101039.06;5060581;27;45714;-78
2023/06/17 09:45:23;;;;;;;;;13.00;12.00;;;;;29.61;56.86;101043.44;5064080;27;45922;-80
2023/06/17 09:47:55;;;;;;;;;16.33;15.00;;;;;29.66;56.07;101046.72;5064433;27;45486;-79
2023/06/17 09:50:22;;;;;;;;;17.33;17.33;;;;;29.71;57.18;101042.72;5066789;28;46811;-77
2023/06/17 09:52:52;;;;;;;;;16.67;16.67;;;;;29.78;56.77;101039.63;5060973;27;45584;-77
2023/06/17 09:55:18;;;;;;;;;14.33;14.33;;;;;29.82;57.63;101036.56;5064267;28;45765;-76
2023/06/17 09:57:43;;;;;;;;;17.33;14.00;;;;;29.86;58.54;101039.97;5068470;28;45901;-79
2023/06/17 10:00:14;;;;;;;;;15.33;14.00;;;;;29.88;59.63;101036.19;5046784;27;46527;-79
2023/06/17 10:02:40;;;;;;;;;54.50;44.75;;;;;29.93;59.13;101033.13;5069524;28;45477;-76
2023/06/17 10:05:07;;;;;;;;;26.67;24.67;;;;;30.00;57.95;101043.53;5069535;28;45888;-78
2023/06/17 10:07:34;;;;;;;;;17.33;17.00;;;;;30.01;57.62;101028.94;5067970;28;45577;-76
2023/06/17 10:10:00;;;;;;;;;19.33;17.67;;;;;30.04;58.48;101033.28;5067060;27;46781;-78
2023/06/17 10:12:26;;;;;;;;;17.67;17.33;;;;;30.05;57.29;101036.91;5068689;27;45867;-78
2023/06/17 10:14:51;;;;;;;;;14.00;14.00;;;;;30.07;57.20;101034.94;5066766;27;65731;-79
2023/06/17 10:17:20;;;;;;;;;19.67;19.00;;;;;30.07;56.68;101026.78;5067490;27;59429;-78
2023/06/17 10:19:46;;;;;;;;;28.00;25.67;;;;;30.07;56.82;101033.09;5067070;27;46587;-78
2023/06/17 10:22:13;;;;;;;;;37.33;32.33;;;;;30.05;57.95;101023.28;5048744;28;45538;-76
2023/06/17 10:24:38;;;;;;;;;15.00;15.00;;;;;30.00;57.71;101021.75;5051012;28;46998;-76
2023/06/17 10:27:06;;;;;;;;;26.33;21.33;;;;;29.95;58.44;101014.88;5069979;27;45397;-76
2023/06/17 10:29:34;;;;;;;;;26.00;26.00;;;;;29.91;59.60;101021.50;5068483;28;45753;-77
2023/06/17 10:32:29;;;;;;;;;20.00;18.00;;;;;29.88;59.46;101021.69;5060327;27;45586;-77
2023/06/17 10:35:12;;;;;;;;;22.33;22.33;;;;;29.85;59.46;101014.59;5050535;28;45998;-78
2023/06/17 10:37:44;;;;;;;;;21.33;20.67;;;;;29.89;59.10;101007.13;5063773;27;45883;-76
2023/06/17 10:40:19;;;;;;;;;16.67;16.67;;;;;29.92;58.63;101006.88;5066579;28;46537;-76
2023/06/17 10:42:59;;;;;;;;;19.00;16.33;;;;;29.96;58.88;101009.31;5062673;27;45891;-77
2023/06/17 10:45:25;;;;;;;;;16.00;16.00;;;;;30.02;58.52;101006.16;5049060;28;45603;-76
2023/06/17 10:47:50;;;;;;;;;18.00;17.00;;;;;30.07;58.98;100996.81;5063435;27;45587;-79
2023/06/17 10:50:20;;;;;;;;;18.67;16.00;;;;;30.15;58.82;100998.09;5063698;27;58812;-77
2023/06/17 10:52:46;;;;;;;;;16.67;16.67;;;;;30.24;58.97;101002.88;5045724;28;45584;-77
2023/06/17 10:55:13;;;;;;;;;20.00;19.00;;;;;30.30;58.82;101000.72;5064420;27;65772;-79
2023/06/17 10:57:38;;;;;;;;;16.67;15.67;;;;;30.38;58.66;100993.78;5065266;28;45687;-78
2023/06/17 11:00:12;;;;;;;;;19.67;16.00;;;;;30.48;59.33;100996.75;5066402;27;46294;-79
2023/06/17 11:02:38;;;;;;;;;19.00;15.00;;;;;30.61;58.96;100992.16;5067050;27;45604;-77
2023/06/17 11:05:05;;;;;;;;;18.00;17.33;;;;;30.72;59.01;100988.69;5065967;28;45470;-76
2023/06/17 11:07:30;;;;;;;;;19.33;19.33;;;;;30.88;58.51;100992.06;5066258;28;45751;-78
2023/06/17 11:09:55;;;;;;;;;18.33;16.67;;;;;30.99;57.49;100983.13;5067592;27;46412;-78